Time;durP1;ratioP1;P1;durP2;ratioP2;P2;SDS_P1;SDS_P2;PMS_P1;PMS_P2;Temp;Humidity;BMP_temperature;BMP_pressure;BME280_temperature;BME280_humidity;BME280_pressure;Samples;Min_cycle;Max_cycle;Signal;HPM_P1;HPM_P2
2021/10/25 00:00:47;;;;;;;65.50;33.78;;;;;;;1.99;79.94;102010.97;5028852;28;20017;-68
2021/10/25 00:03:13;;;;;;;69.50;33.08;;;;;;;2.06;80.69;102028.41;5021375;28;20117;-69
2021/10/25 00:05:38;;;;;;;54.97;30.33;;;;;;;1.97;81.54;102017.22;5015954;28;20038;-68
2021/10/25 00:08:04;;;;;;;61.05;30.90;;;;;;;2.02;81.75;102026.75;5018509;28;20436;-68
2021/10/25 00:10:30;;;;;;;65.05;31.13;;;;;;;2.02;82.21;102026.75;5023628;28;20464;-69
2021/10/25 00:12:55;;;;;;;57.03;29.20;;;;;;;1.96;82.59;102020.75;5028779;28;20029;-69
2021/10/25 00:15:22;;;;;;;59.83;28.42;;;;;;;2.02;82.50;102023.25;5028555;28;20033;-69
2021/10/25 00:17:47;;;;;;;58.92;27.83;;;;;;;1.98;82.61;102017.19;5012354;28;20132;-68
2021/10/25 00:20:13;;;;;;;59.92;29.60;;;;;;;2.05;82.14;102036.41;5020240;28;20498;-68
2021/10/25 00:22:40;;;;;;;60.80;29.85;;;;;;;2.02;82.09;102032.06;5023941;28;20029;-68
2021/10/25 00:25:06;;;;;;;61.58;28.67;;;;;;;1.90;81.01;102011.19;5026305;28;20407;-69
2021/10/25 00:27:32;;;;;;;56.97;27.83;;;;;;;1.99;80.20;102024.19;5015028;28;20356;-68
2021/10/25 00:29:57;;;;;;;59.95;28.38;;;;;;;1.98;80.17;102022.47;5024385;28;20021;-68
2021/10/25 00:32:23;;;;;;;53.47;26.30;;;;;;;1.90;79.73;102013.84;5024551;28;20395;-68
2021/10/25 00:34:48;;;;;;;46.90;25.25;;;;;;;1.93;80.63;102024.34;5027775;28;20040;-69
2021/10/25 00:37:14;;;;;;;46.50;22.77;;;;;;;1.86;81.13;102006.91;5025344;28;20128;-71
2021/10/25 00:39:39;;;;;;;49.15;22.88;;;;;;;1.91;81.35;102014.72;5016598;28;20033;-69
2021/10/25 00:42:05;;;;;;;38.28;20.90;;;;;;;1.81;81.36;102005.28;5025467;28;20022;-68
2021/10/25 00:44:31;;;;;;;47.75;22.40;;;;;;;1.91;81.24;102027.94;5018242;28;20394;-69
2021/10/25 00:46:58;;;;;;;46.30;22.00;;;;;;;1.88;81.08;102020.09;5027100;28;20484;-69
2021/10/25 00:49:24;;;;;;;44.53;21.80;;;;;;;1.90;81.33;102024.44;5026918;28;20112;-68
2021/10/25 00:51:50;;;;;;;49.42;22.45;;;;;;;1.90;81.45;102029.72;5028193;28;20021;-69
2021/10/25 00:54:16;;;;;;;42.45;21.35;;;;;;;1.92;81.71;102027.03;5022884;28;20028;-69
2021/10/25 00:56:43;;;;;;;46.65;20.85;;;;;;;1.96;81.67;102032.22;5020587;28;20037;-69
2021/10/25 00:59:10;;;;;;;47.45;21.13;;;;;;;1.86;80.94;102006.91;5020650;28;20476;-68
2021/10/25 01:01:36;;;;;;;41.10;19.85;;;;;;;1.90;80.66;102019.13;5021235;28;20507;-68
2021/10/25 01:04:02;;;;;;;48.50;21.45;;;;;;;1.89;80.92;102006.81;5024602;28;20021;-69
2021/10/25 01:06:29;;;;;;;39.17;20.60;;;;;;;1.85;80.89;102004.28;5013816;28;20445;-69
2021/10/25 01:08:56;;;;;;;48.00;21.50;;;;;;;1.83;80.85;102004.34;5020853;28;20491;-69
2021/10/25 01:11:23;;;;;;;43.92;20.42;;;;;;;1.80;81.06;101999.13;5020213;28;20111;-69
2021/10/25 01:13:48;;;;;;;40.60;19.13;;;;;;;1.77;80.55;102001.84;5020136;28;20106;-67
2021/10/25 01:16:14;;;;;;;38.42;18.75;;;;;;;1.73;80.76;101994.00;5027954;28;20064;-68
2021/10/25 01:18:40;;;;;;;39.05;19.13;;;;;;;1.69;80.99;101995.88;5023946;28;20537;-69
2021/10/25 01:21:05;;;;;;;34.45;17.65;;;;;;;1.70;81.37;101997.63;5027943;28;20039;-69
2021/10/25 01:23:31;;;;;;;31.92;17.65;;;;;;;1.70;81.60;102002.91;5028226;28;20037;-69
2021/10/25 01:25:57;;;;;;;36.55;18.08;;;;;;;1.65;82.17;101994.19;5020310;28;20022;-68
2021/10/25 01:28:23;;;;;;;33.33;16.60;;;;;;;1.56;81.94;101975.94;5028189;28;20025;-68
2021/10/25 01:30:48;;;;;;;36.58;17.27;;;;;;;1.56;82.34;101973.28;5027850;28;20029;-68
2021/10/25 01:33:15;;;;;;;35.13;16.42;;;;;;;1.64;82.36;101989.81;5025102;28;20022;-69
2021/10/25 01:35:41;;;;;;;32.90;17.33;;;;;;;1.57;81.72;101976.78;5027976;28;20041;-68
2021/10/25 01:38:07;;;;;;;35.95;16.45;;;;;;;1.50;81.76;101964.63;5025644;28;20030;-68
2021/10/25 01:40:33;;;;;;;37.95;17.33;;;;;;;1.51;81.53;101980.44;5024513;28;20492;-68
2021/10/25 01:42:58;;;;;;;36.90;18.02;;;;;;;1.46;81.75;101979.72;5026166;28;20026;-65
2021/10/25 01:45:25;;;;;;;32.58;17.60;;;;;;;1.45;81.76;101961.25;5027554;28;20037;-64
2021/10/25 01:47:50;;;;;;;32.92;17.30;;;;;;;1.54;81.59;101977.75;5030048;28;20475;-63
2021/10/25 01:50:16;;;;;;;36.13;18.75;;;;;;;1.52;81.38;101981.34;5023581;28;20040;-65
2021/10/25 01:52:42;;;;;;;30.92;16.17;;;;;;;1.50;80.86;101986.66;5031260;28;20132;-63
2021/10/25 01:55:09;;;;;;;34.80;16.65;;;;;;;1.47;81.19;101980.56;5031006;28;20035;-64
2021/10/25 01:57:34;;;;;;;30.38;15.80;;;;;;;1.43;81.79;101976.25;5031265;28;20025;-64
2021/10/25 02:00:00;;;;;;;34.28;15.27;;;;;;;1.43;82.07;101974.50;5031105;28;20025;-64
2021/10/25 02:02:26;;;;;;;35.03;15.18;;;;;;;1.42;82.08;101972.75;5029495;28;20037;-65
2021/10/25 02:04:52;;;;;;;34.08;16.65;;;;;;;1.41;81.72;101976.31;5031008;28;20033;-65
2021/10/25 02:07:18;;;;;;;35.45;15.48;;;;;;;1.38;81.64;101967.56;5029552;28;20459;-65
2021/10/25 02:09:43;;;;;;;33.17;15.35;;;;;;;1.35;81.07;101957.94;5030789;28;20479;-65
2021/10/25 02:12:09;;;;;;;29.65;15.32;;;;;;;1.39;80.88;101970.16;5031003;28;20025;-65
2021/10/25 02:14:34;;;;;;;35.85;14.50;;;;;;;1.39;81.26;101970.16;5030878;28;20025;-64
2021/10/25 02:17:00;;;;;;;35.83;15.93;;;;;;;1.35;81.70;101962.38;5025618;28;20091;-65
2021/10/25 02:19:25;;;;;;;39.15;18.45;;;;;;;1.36;81.39;101966.75;5030614;28;20208;-64
2021/10/25 02:21:51;;;;;;;41.92;18.60;;;;;;;1.34;81.73;101965.91;5023011;28;20040;-67
2021/10/25 02:24:17;;;;;;;45.03;20.33;;;;;;;1.27;81.72;101961.69;5030440;28;20029;-65
2021/10/25 02:26:42;;;;;;;38.97;18.73;;;;;;;1.24;81.51;101957.34;5030573;28;20078;-64
2021/10/25 02:29:09;;;;;;;40.72;18.83;;;;;;;1.23;81.44;101958.22;5030841;28;20029;-64
2021/10/25 02:31:35;;;;;;;37.33;17.25;;;;;;;1.23;81.38;101952.09;5027916;28;20029;-68
2021/10/25 02:34:01;;;;;;;37.55;16.80;;;;;;;1.20;81.31;101947.75;5027834;28;20017;-69
2021/10/25 02:36:27;;;;;;;31.38;15.27;;;;;;;1.24;81.71;101953.81;5022865;28;20044;-69
2021/10/25 02:38:54;;;;;;;29.52;15.00;;;;;;;1.21;81.21;101957.41;5028115;28;20049;-64
2021/10/25 02:41:20;;;;;;;36.20;15.63;;;;;;;1.21;81.59;101946.84;5030181;28;20496;-65
2021/10/25 02:43:45;;;;;;;31.25;15.38;;;;;;;1.23;82.25;101949.44;5030025;28;20025;-65
2021/10/25 02:46:10;;;;;;;33.95;15.68;;;;;;;1.21;82.34;101940.69;5030138;28;20040;-65
2021/10/25 02:48:37;;;;;;;37.55;16.23;;;;;;;1.18;81.93;101940.75;5030528;28;20511;-64
2021/10/25 02:51:03;;;;;;;37.15;16.15;;;;;;;1.19;81.49;101942.50;5030366;28;20112;-64
2021/10/25 02:53:29;;;;;;;38.58;15.40;;;;;;;1.20;81.86;101945.13;5029842;28;20059;-65
2021/10/25 02:55:55;;;;;;;36.28;16.23;;;;;;;1.15;81.73;101936.41;5030007;28;20029;-65
2021/10/25 02:58:20;;;;;;;33.75;14.52;;;;;;;1.17;81.77;101936.38;5028965;28;20523;-65
2021/10/25 03:00:46;;;;;;;35.83;15.23;;;;;;;1.23;82.14;101944.16;5028510;28;20033;-64
2021/10/25 03:03:11;;;;;;;34.15;15.18;;;;;;;1.04;82.03;101912.03;5029916;28;20029;-66
2021/10/25 03:05:37;;;;;;;29.15;14.55;;;;;;;1.16;82.14;101938.13;5030080;28;20045;-65
2021/10/25 03:08:03;;;;;;;35.25;16.02;;;;;;;1.10;82.59;101943.56;5025214;28;20439;-64
2021/10/25 03:10:28;;;;;;;28.60;14.38;;;;;;;1.16;83.31;101947.84;5030310;28;20120;-64
2021/10/25 03:12:54;;;;;;;39.33;15.82;;;;;;;1.15;82.70;101935.53;5028352;28;20018;-64
2021/10/25 03:15:20;;;;;;;39.22;15.40;;;;;;;1.14;82.15;101939.97;5029346;28;20017;-65
2021/10/25 03:17:46;;;;;;;28.90;14.80;;;;;;;1.12;82.51;101925.03;5029264;28;20041;-65
2021/10/25 03:20:12;;;;;;;29.35;14.98;;;;;;;1.10;81.86;101929.50;5029704;28;20033;-65
2021/10/25 03:22:39;;;;;;;23.60;13.23;;;;;;;1.12;81.73;101931.19;5029539;28;20547;-65
2021/10/25 03:25:05;;;;;;;24.60;14.10;;;;;;;1.13;81.94;101926.78;5029647;28;20541;-64
2021/10/25 03:27:31;;;;;;;28.58;14.27;;;;;;;1.15;82.51;101936.41;5029333;28;20029;-64
2021/10/25 03:29:57;;;;;;;32.08;14.68;;;;;;;1.17;83.62;101937.25;5013884;28;20083;-65
2021/10/25 03:32:23;;;;;;;23.77;14.45;;;;;;;1.16;84.29;101930.22;5018738;28;20028;-64
2021/10/25 03:34:49;;;;;;;30.55;14.80;;;;;;;1.16;84.76;101932.00;5017037;28;20022;-69
2021/10/25 03:37:15;;;;;;;33.47;14.90;;;;;;;1.18;84.38;101928.41;5016628;28;20034;-69
2021/10/25 03:39:42;;;;;;;30.58;15.55;;;;;;;1.20;84.31;101923.97;5014572;28;20403;-65
2021/10/25 03:42:20;;;;;;;29.95;15.05;;;;;;;1.14;84.81;101907.38;5014597;28;20168;-65
2021/10/25 03:44:54;;;;;;;31.13;14.32;;;;;;;1.25;84.32;101918.56;5018857;28;20031;-65
2021/10/25 03:50:28;;;;;;;32.35;15.48;;;;;;;1.31;84.48;101919.28;4992288;28;20041;-64
2021/10/25 04:28:04;;;;;;;38.00;18.27;;;;;;;1.47;86.96;101861.59;5022415;28;20099;-65
2021/10/25 04:30:33;;;;;;;39.85;20.25;;;;;;;1.55;86.74;101867.56;5021231;28;20030;-65
2021/10/25 04:32:59;;;;;;;39.08;19.33;;;;;;;1.54;86.91;101866.69;5012558;28;20018;-65
2021/10/25 04:35:25;;;;;;;37.28;19.35;;;;;;;1.53;87.05;101872.91;5021359;28;20077;-64
2021/10/25 04:37:51;;;;;;;38.83;18.58;;;;;;;1.59;87.90;101872.75;5013304;28;20045;-64
2021/10/25 04:40:17;;;;;;;38.55;18.90;;;;;;;1.71;88.69;101882.97;5015023;28;20395;-64
2021/10/25 04:42:43;;;;;;;40.00;18.48;;;;;;;1.74;89.00;101885.53;5017884;28;20029;-64
2021/10/25 04:45:09;;;;;;;40.50;20.02;;;;;;;1.83;89.17;101874.72;5016476;28;20025;-64
2021/10/25 04:47:35;;;;;;;41.65;19.90;;;;;;;1.90;89.40;101878.03;5020660;28;20049;-65
2021/10/25 04:50:01;;;;;;;36.88;19.25;;;;;;;1.97;89.16;101872.56;5011752;28;20022;-66
2021/10/25 04:52:27;;;;;;;33.55;18.65;;;;;;;1.99;89.19;101869.88;5016698;28;20029;-70
2021/10/25 04:54:53;;;;;;;35.63;19.17;;;;;;;2.07;88.51;101881.97;5020043;28;20038;-70
2021/10/25 04:57:18;;;;;;;33.85;19.52;;;;;;;2.10;88.66;101876.59;5021829;28;20076;-70
2021/10/25 04:59:44;;;;;;;40.33;19.27;;;;;;;2.19;88.64;101873.69;5020741;28;20042;-70
2021/10/25 05:02:10;;;;;;;33.20;18.63;;;;;;;2.27;87.93;101876.13;5020787;28;20035;-70
2021/10/25 05:04:35;;;;;;;29.77;17.10;;;;;;;2.27;88.10;101874.34;5022827;28;20475;-70
2021/10/25 05:07:01;;;;;;;37.20;17.35;;;;;;;2.28;87.24;101857.53;5019774;28;20116;-71
2021/10/25 05:09:26;;;;;;;33.63;18.17;;;;;;;2.33;87.40;101860.91;5024537;28;20375;-71
2021/10/25 05:11:51;;;;;;;36.45;18.48;;;;;;;2.42;86.82;101872.16;5021437;28;20096;-70
2021/10/25 05:14:17;;;;;;;35.10;17.73;;;;;;;2.42;86.50;101860.63;5021674;28;20017;-68
2021/10/25 05:16:43;;;;;;;30.80;16.65;;;;;;;2.48;86.35;101864.03;5023140;28;20049;-70
2021/10/25 05:19:10;;;;;;;32.60;17.10;;;;;;;2.42;86.33;101857.16;5026638;28;20049;-70
2021/10/25 05:21:36;;;;;;;44.60;19.45;;;;;;;2.42;85.59;101855.34;5028981;28;20041;-66
2021/10/25 05:24:01;;;;;;;32.53;17.48;;;;;;;2.46;84.87;101865.84;5022773;28;20072;-66
2021/10/25 05:26:28;;;;;;;36.67;18.63;;;;;;;2.45;84.40;101869.41;5032067;28;20053;-66
2021/10/25 05:28:54;;;;;;;32.97;17.77;;;;;;;2.42;84.66;101860.63;5031843;28;20080;-64
2021/10/25 05:31:19;;;;;;;36.70;18.55;;;;;;;2.46;84.58;101874.66;5030576;28;20029;-65
2021/10/25 05:33:45;;;;;;;39.15;19.77;;;;;;;2.45;84.09;101875.56;5031728;28;20029;-66
2021/10/25 05:36:11;;;;;;;39.20;20.27;;;;;;;2.32;83.34;101861.81;5032041;28;20033;-65
2021/10/25 05:38:37;;;;;;;45.20;22.67;;;;;;;2.35;83.09;101882.91;5031654;28;20030;-64
2021/10/25 05:41:03;;;;;;;49.58;22.80;;;;;;;2.29;82.99;101877.78;5028361;28;20036;-65
2021/10/25 05:43:30;;;;;;;53.17;24.83;;;;;;;2.24;82.84;101877.06;5031329;28;20044;-66
2021/10/25 05:45:56;;;;;;;49.13;25.02;;;;;;;2.07;83.50;101874.03;5031572;28;20040;-66
2021/10/25 05:48:22;;;;;;;53.53;26.58;;;;;;;2.11;83.48;101883.63;5031198;28;20037;-65
2021/10/25 05:50:48;;;;;;;50.53;24.83;;;;;;;2.04;84.06;101882.03;5028904;28;20374;-65
2021/10/25 05:53:15;;;;;;;55.13;26.15;;;;;;;2.07;84.50;101886.41;5031757;28;20022;-70
2021/10/25 05:55:42;;;;;;;77.07;33.47;;;;;;;1.89;84.99;101866.63;5026161;28;20387;-70
2021/10/25 05:58:18;;;;;;;74.28;34.72;;;;;;;1.93;85.57;101875.31;5023192;28;20018;-69
2021/10/25 06:00:49;;;;;;;70.18;32.05;;;;;;;1.94;85.28;101877.94;5031423;28;20017;-69
2021/10/25 06:03:20;;;;;;;57.75;26.45;;;;;;;2.05;85.84;101890.88;5031261;28;20029;-70
2021/10/25 06:05:46;;;;;;;54.63;24.55;;;;;;;2.03;85.98;101890.91;5031488;28;20095;-69
2021/10/25 06:08:14;;;;;;;49.72;24.70;;;;;;;2.03;86.23;101888.25;5028686;28;20021;-71
2021/10/25 06:10:40;;;;;;;40.78;21.80;;;;;;;2.05;86.84;101896.16;5023939;28;20440;-69
2021/10/25 06:13:07;;;;;;;48.80;22.55;;;;;;;2.08;87.43;101891.66;5029098;28;20104;-69
2021/10/25 06:15:40;;;;;;;40.90;20.58;;;;;;;2.10;87.68;101884.53;5029542;28;20116;-70
2021/10/25 06:18:09;;;;;;;35.40;22.40;;;;;;;2.12;88.01;101885.38;5019087;28;20531;-70
2021/10/25 06:20:37;;;;;;;38.33;19.20;;;;;;;2.11;88.43;101880.09;5025094;28;20042;-70
2021/10/25 06:23:11;;;;;;;34.13;18.58;;;;;;;2.25;88.93;101884.09;5014935;28;20480;-70
2021/10/25 06:25:37;;;;;;;29.92;17.45;;;;;;;2.29;89.07;101885.75;5031381;28;20511;-72
2021/10/25 06:28:03;;;;;;;33.40;16.92;;;;;;;2.42;89.62;101896.84;5013955;28;20427;-72
2021/10/25 06:30:29;;;;;;;28.35;16.42;;;;;;;2.51;89.95;101896.56;5021910;28;20082;-65
2021/10/25 06:32:56;;;;;;;31.70;15.63;;;;;;;2.60;90.00;101903.34;5029679;28;20386;-66
2021/10/25 06:35:25;;;;;;;30.60;15.68;;;;;;;2.72;89.95;101905.66;5030019;28;20037;-65
2021/10/25 06:40:48;;;;;;;;;;;;;;;2.90;89.17;101910.41;5024200;28;20056;-65
2021/10/25 06:43:14;;;;;;;21.40;12.88;;;;;;;3.01;88.73;101908.25;5030690;28;20344;-64
2021/10/25 06:45:40;;;;;;;28.88;13.68;;;;;;;3.10;88.65;101903.56;5030116;28;20497;-65
2021/10/25 06:48:05;;;;;;;26.00;13.90;;;;;;;3.20;88.08;101909.41;5028716;28;20033;-65
2021/10/25 06:50:34;;;;;;;23.58;11.50;;;;;;;3.23;88.11;101898.72;5030341;28;20479;-65
2021/10/25 06:53:05;;;;;;;22.88;13.05;;;;;;;3.39;88.01;101919.34;5030121;28;20025;-65
2021/10/25 06:55:33;;;;;;;22.60;12.60;;;;;;;3.47;87.42;101909.38;5030121;28;20029;-64
2021/10/25 06:57:59;;;;;;;23.10;12.02;;;;;;;3.54;87.18;101910.91;5028704;28;20398;-65
2021/10/25 07:00:25;;;;;;;23.38;12.35;;;;;;;3.66;86.49;101909.63;5029872;28;20029;-65
2021/10/25 07:02:51;;;;;;;24.05;13.65;;;;;;;3.72;85.91;101897.00;5029919;28;20032;-64
2021/10/25 07:05:17;;;;;;;26.55;12.90;;;;;;;3.90;85.50;101912.28;5030275;28;20068;-63
2021/10/25 07:07:42;;;;;;;25.15;14.07;;;;;;;3.92;85.05;101896.31;5028367;28;20030;-64
2021/10/25 07:10:09;;;;;;;22.15;13.48;;;;;;;4.09;84.53;101904.53;5029919;28;20025;-63
2021/10/25 07:12:35;;;;;;;23.42;13.00;;;;;;;4.16;84.36;101906.91;5029895;28;20120;-64
2021/10/25 07:15:03;;;;;;;24.73;12.27;;;;;;;4.30;83.70;101909.06;5028451;28;20448;-64
2021/10/25 07:20:07;;;;;;;25.73;12.85;;;;;;;4.55;82.58;101909.91;5029750;28;20052;-65
2021/10/25 08:01:14;;;;;;;15.93;10.00;;;;;;;7.41;66.99;101884.69;5026459;28;20041;-70
2021/10/25 08:11:38;;;;;;;16.77;10.73;;;;;;;7.45;68.24;101890.75;5020373;28;20040;-69
2021/10/25 08:14:06;;;;;;;;;;;;;;;7.43;67.92;101884.63;5023041;28;20030;-71
2021/10/25 08:16:43;;;;;;;16.80;9.55;;;;;;;7.45;68.41;101877.41;5014179;28;19919;-69
2021/10/25 08:19:25;;;;;;;18.10;10.45;;;;;;;7.51;68.49;101885.13;5023121;28;20124;-70
2021/10/25 08:22:13;;;;;;;17.48;8.90;;;;;;;7.61;68.18;101883.72;5023449;28;20646;-69
2021/10/25 08:24:43;;;;;;;15.20;9.18;;;;;;;7.54;68.36;101871.63;5017665;28;20022;-69
2021/10/25 08:27:09;;;;;;;18.13;8.40;;;;;;;7.66;68.30;101887.88;5025522;28;20471;-68
2021/10/25 08:29:35;;;;;;;14.95;7.57;;;;;;;7.72;68.22;101887.56;5021128;28;20128;-70
2021/10/25 08:42:13;;;;;;;11.75;6.57;;;;;;;8.02;66.94;101890.44;5026119;28;20041;-68
2021/10/25 08:44:40;;;;;;;9.70;6.32;;;;;;;8.10;67.33;101894.44;5013734;28;20026;-70
2021/10/25 08:47:07;;;;;;;12.18;7.47;;;;;;;8.12;67.46;101880.97;5026170;28;20056;-69
2021/10/25 08:49:33;;;;;;;13.68;7.95;;;;;;;8.26;67.62;101889.19;5028312;28;20029;-69
2021/10/25 08:52:00;;;;;;;13.40;6.95;;;;;;;8.31;66.97;101882.66;5026809;28;20037;-68
2021/10/25 08:54:26;;;;;;;10.45;6.80;;;;;;;8.44;66.22;101883.72;5028161;28;20463;-68
2021/10/25 08:56:52;;;;;;;10.38;6.47;;;;;;;8.51;65.96;101889.56;5029550;28;20108;-69
2021/10/25 08:59:18;;;;;;;10.32;6.35;;;;;;;8.59;65.09;101882.88;5029608;28;20109;-69
2021/10/25 09:01:43;;;;;;;12.93;7.28;;;;;;;8.61;65.31;101885.47;5023530;28;20030;-69
2021/10/25 09:04:12;;;;;;;13.75;7.63;;;;;;;8.75;65.33;101894.47;5026446;28;20020;-69
2021/10/25 09:06:58;;;;;;;14.48;7.15;;;;;;;8.83;64.81;101892.22;5027218;28;20116;-69
2021/10/25 09:09:24;;;;;;;10.98;6.13;;;;;;;8.90;64.54;101882.06;5028488;28;20029;-69
2021/10/25 09:11:55;;;;;;;10.35;6.60;;;;;;;9.05;64.20;101894.56;5028618;28;20029;-69
2021/10/25 09:14:21;;;;;;;11.75;6.00;;;;;;;9.12;63.91;101877.19;5023274;28;20028;-69
2021/10/25 09:16:47;;;;;;;9.95;6.55;;;;;;;9.31;63.26;101882.38;5031790;28;20360;-68
2021/10/25 09:19:19;;;;;;;9.43;5.72;;;;;;;9.40;62.64;101861.28;5031335;28;20133;-69
2021/10/25 09:21:44;;;;;;;10.82;5.97;;;;;;;9.66;61.86;101873.13;5030186;28;20045;-69
2021/10/25 09:24:24;;;;;;;13.48;6.05;;;;;;;9.97;61.36;101868.53;5031548;28;20515;-69
2021/10/25 09:27:00;;;;;;;9.00;6.13;;;;;;;10.37;59.76;101873.19;5030847;28;20041;-67
2021/10/25 09:29:45;;;;;;;9.07;5.18;;;;;;;10.95;57.97;101868.53;5027301;28;20034;-68
2021/10/25 09:32:14;;;;;;;9.80;5.97;;;;;;;12.12;54.92;101865.03;5029505;28;20201;-69
2021/10/25 09:34:51;;;;;;;8.63;4.63;;;;;;;13.91;49.85;101848.97;5030240;28;20376;-68
2021/10/25 09:37:22;;;;;;;8.05;4.82;;;;;;;15.94;44.37;101815.84;5031671;28;20025;-68
2021/10/25 09:40:07;;;;;;;13.23;5.05;;;;;;;17.96;39.71;101830.69;5031288;28;20024;-67
2021/10/25 09:45:42;;;;;;;8.32;4.78;;;;;;;20.89;33.83;101802.41;5032178;28;20032;-68
2021/10/25 09:50:55;;;;;;;9.32;4.75;;;;;;;21.67;31.60;101790.97;5031987;28;20040;-68
2021/10/25 09:54:05;;;;;;;9.27;5.22;;;;;;;21.34;31.63;101781.91;5034681;28;20033;-70
2021/10/25 09:56:33;;;;;;;8.15;4.10;;;;;;;20.91;32.62;101778.53;5028767;28;20665;-68
2021/10/25 09:59:30;;;;;;;5.90;4.30;;;;;;;20.50;33.30;101779.41;5028456;28;20022;-67
2021/10/25 10:01:56;;;;;;;7.78;4.70;;;;;;;19.78;34.05;101777.03;5031610;28;20029;-68
2021/10/25 10:04:22;;;;;;;11.73;5.15;;;;;;;19.18;35.34;101783.22;5031256;28;20018;-69
2021/10/25 10:06:47;;;;;;;9.05;5.38;;;;;;;18.47;36.17;101779.53;5025163;28;20114;-68
2021/10/25 10:09:16;;;;;;;8.20;4.88;;;;;;;17.78;37.62;101786.28;5027430;28;20034;-69
2021/10/25 10:11:42;;;;;;;7.82;4.13;;;;;;;17.16;38.20;101777.69;5031024;28;20048;-68
2021/10/25 10:14:09;;;;;;;6.80;4.32;;;;;;;16.59;39.36;101778.44;5027414;28;20045;-67
2021/10/25 10:16:36;;;;;;;10.82;4.80;;;;;;;16.16;40.68;101791.34;5019711;28;20044;-68
2021/10/25 10:19:06;;;;;;;5.95;4.28;;;;;;;15.78;42.07;101785.69;5031139;28;20045;-67
2021/10/25 10:21:33;;;;;;;8.93;4.05;;;;;;;15.37;42.71;101764.03;5031136;28;20048;-68
2021/10/25 10:24:04;;;;;;;7.15;4.35;;;;;;;15.13;43.43;101779.59;5026036;28;20464;-69
2021/10/25 10:26:33;;;;;;;10.60;4.78;;;;;;;14.83;43.93;101761.38;5028921;28;20049;-68
2021/10/25 10:29:14;;;;;;;8.68;4.30;;;;;;;14.66;45.02;101770.00;5030856;28;20026;-68
2021/10/25 10:31:40;;;;;;;7.53;4.15;;;;;;;14.40;45.51;101752.38;5029079;28;20040;-68
2021/10/25 10:34:17;;;;;;;4.97;3.78;;;;;;;14.32;46.05;101764.78;5030436;28;20026;-67
2021/10/25 10:37:20;;;;;;;9.02;4.78;;;;;;;14.18;46.56;101771.22;5030210;28;20017;-67
2021/10/25 10:40:04;;;;;;;6.85;4.95;;;;;;;14.04;47.08;101766.09;5022869;28;20052;-68
2021/10/25 10:42:32;;;;;;;6.00;4.57;;;;;;;13.85;47.47;101746.06;5019210;28;20114;-67
2021/10/25 10:45:00;;;;;;;9.82;4.95;;;;;;;13.84;47.64;101752.44;5029200;28;20496;-69
2021/10/25 10:47:28;;;;;;;8.25;5.22;;;;;;;13.77;48.13;101748.53;5030169;28;20035;-68
2021/10/25 10:49:56;;;;;;;8.15;5.05;;;;;;;13.74;48.19;101752.31;5029079;28;20130;-69
2021/10/25 10:52:38;;;;;;;8.90;4.80;;;;;;;13.75;48.51;101737.84;5021147;28;20025;-68
2021/10/25 10:55:29;;;;;;;8.95;5.22;;;;;;;13.70;48.58;101735.50;5030305;28;20517;-68
2021/10/25 11:00:35;;;;;;;8.40;5.28;;;;;;;13.65;48.84;101731.47;5030297;28;20076;-68
2021/10/25 11:03:22;;;;;;;8.02;4.63;;;;;;;13.60;49.42;101730.94;5028649;28;20025;-69
2021/10/25 11:05:55;;;;;;;9.98;5.50;;;;;;;13.58;48.58;101719.44;5029634;28;20068;-67
2021/10/25 11:08:24;;;;;;;10.48;4.90;;;;;;;13.57;49.79;101718.56;5029688;28;20033;-67
2021/10/25 11:11:14;;;;;;;8.90;5.20;;;;;;;13.50;49.74;101706.56;5027239;28;20029;-68
2021/10/25 11:13:47;;;;;;;7.63;4.90;;;;;;;13.56;49.49;101706.09;5029438;28;20025;-67
2021/10/25 11:16:20;;;;;;;7.13;5.28;;;;;;;13.49;49.19;101699.47;5028337;28;20025;-69
2021/10/25 11:18:48;;;;;;;9.27;4.70;;;;;;;13.55;49.23;101698.97;5028929;28;20049;-68
2021/10/25 11:21:38;;;;;;;7.40;5.13;;;;;;;13.50;49.38;101682.31;5022695;28;20088;-69
2021/10/25 11:24:13;;;;;;;8.88;5.03;;;;;;;13.60;49.73;101690.50;5029372;28;20487;-68
2021/10/25 11:26:41;;;;;;;7.85;4.93;;;;;;;13.63;49.52;101692.97;5029415;28;20041;-68
2021/10/25 11:29:12;;;;;;;11.40;4.88;;;;;;;13.65;49.49;101701.81;5029437;28;20051;-69
2021/10/25 11:31:42;;;;;;;6.97;5.00;;;;;;;13.62;49.51;101675.97;5029346;28;20028;-69
2021/10/25 11:34:40;;;;;;;8.35;4.95;;;;;;;13.65;49.59;101680.25;5028084;28;20017;-68
2021/10/25 11:37:10;;;;;;;9.55;4.57;;;;;;;13.58;49.05;101662.84;5026337;28;20120;-68
2021/10/25 11:42:28;;;;;;;6.88;4.85;;;;;;;13.75;49.22;101681.22;5029790;28;20021;-68
2021/10/25 11:44:59;;;;;;;8.75;5.38;;;;;;;13.83;48.71;101676.06;5029030;28;20056;-69
2021/10/25 11:47:36;;;;;;;9.57;5.38;;;;;;;13.81;49.02;101667.25;5029322;28;20033;-67
2021/10/25 11:50:08;;;;;;;6.43;4.65;;;;;;;13.84;49.05;101656.22;5029221;28;20083;-68
2021/10/25 11:52:49;;;;;;;10.75;5.10;;;;;;;13.86;48.38;101665.03;5029202;28;20025;-67
2021/10/25 11:55:21;;;;;;;8.13;4.65;;;;;;;13.87;48.20;101649.72;5029277;28;20431;-67
2021/10/25 11:57:55;;;;;;;8.25;4.10;;;;;;;13.88;48.05;101648.72;5028902;28;20470;-69
2021/10/25 12:00:24;;;;;;;11.88;4.45;;;;;;;13.94;47.15;101654.50;5029325;28;20025;-67
2021/10/25 12:02:49;;;;;;;7.65;3.92;;;;;;;13.91;46.67;101643.09;5028757;28;20063;-67
2021/10/25 12:05:20;;;;;;;7.13;3.83;;;;;;;13.98;46.44;101638.91;5028923;28;20041;-68
2021/10/25 12:07:50;;;;;;;6.18;4.10;;;;;;;13.87;45.72;101612.81;5028604;28;20167;-67
2021/10/25 12:10:17;;;;;;;6.28;3.97;;;;;;;14.00;46.34;101629.72;5029202;28;20032;-68
2021/10/25 12:12:44;;;;;;;6.78;3.78;;;;;;;14.01;45.94;101625.16;5027423;28;20021;-68
2021/10/25 12:15:18;;;;;;;5.80;3.22;;;;;;;14.09;45.83;101625.41;5024649;28;20029;-67
2021/10/25 12:17:45;;;;;;;6.70;3.72;;;;;;;14.10;46.09;101627.13;5028495;28;20037;-68
2021/10/25 12:20:12;;;;;;;5.78;3.35;;;;;;;14.12;45.45;101620.63;5027167;28;20021;-68
2021/10/25 12:22:42;;;;;;;9.25;4.60;;;;;;;14.30;45.12;101612.88;5028538;28;20104;-68
2021/10/25 12:25:09;;;;;;;7.18;3.47;;;;;;;14.28;45.10;101615.72;5028807;28;20108;-68
2021/10/25 12:27:38;;;;;;;7.18;3.72;;;;;;;14.30;44.96;101610.19;5028382;28;20048;-68
2021/10/25 12:30:14;;;;;;;7.22;3.17;;;;;;;14.37;44.54;101614.94;5028821;28;20033;-68
2021/10/25 12:32:53;;;;;;;9.98;3.25;;;;;;;14.36;44.47;101599.75;5028296;28;20468;-68
2021/10/25 12:35:39;;;;;;;7.80;3.30;;;;;;;14.37;45.04;101596.06;5028693;28;20361;-68
2021/10/25 12:38:12;;;;;;;4.65;3.20;;;;;;;14.39;44.82;101593.22;5028128;28;20475;-68
2021/10/25 12:40:48;;;;;;;7.25;3.65;;;;;;;14.41;45.22;101592.09;5028090;28;20383;-68
2021/10/25 12:43:16;;;;;;;5.68;3.63;;;;;;;14.42;45.17;101583.03;5027900;28;20101;-68
2021/10/25 12:45:55;;;;;;;6.47;3.40;;;;;;;14.42;45.40;101580.34;5028045;28;20438;-67
2021/10/25 12:48:21;;;;;;;9.50;3.50;;;;;;;14.44;45.12;101586.47;5028329;28;20021;-65
2021/10/25 12:50:50;;;;;;;6.57;3.42;;;;;;;14.45;45.02;101581.94;5028172;28;20021;-68
2021/10/25 12:53:18;;;;;;;7.47;3.72;;;;;;;14.45;45.27;101579.22;5025418;28;20020;-68
2021/10/25 12:55:54;;;;;;;5.80;3.72;;;;;;;14.46;44.79;101579.09;5027784;28;20028;-68
2021/10/25 12:58:22;;;;;;;5.95;3.88;;;;;;;14.44;45.37;101566.72;5026522;28;20042;-69
2021/10/25 13:00:48;;;;;;;7.47;3.80;;;;;;;14.36;45.31;101561.97;5027947;28;20383;-69
2021/10/25 13:03:14;;;;;;;8.13;3.60;;;;;;;14.37;45.24;101557.41;5028361;28;20105;-69
2021/10/25 13:05:48;;;;;;;10.40;3.72;;;;;;;14.41;45.61;101564.28;5026507;28;20064;-68
2021/10/25 13:08:14;;;;;;;7.90;3.80;;;;;;;14.46;45.41;101572.81;5026489;28;20033;-67
2021/10/25 13:10:42;;;;;;;9.40;3.53;;;;;;;14.45;45.37;101566.56;5028073;28;20095;-67
2021/10/25 13:13:10;;;;;;;10.18;4.57;;;;;;;14.44;45.65;101559.47;5027918;28;20032;-62
2021/10/25 13:15:37;;;;;;;7.97;4.10;;;;;;;14.38;45.72;101546.47;5027754;28;20387;-62
2021/10/25 13:18:09;;;;;;;7.32;3.58;;;;;;;14.45;45.59;101553.06;5028056;28;20404;-63
2021/10/25 13:20:40;;;;;;;7.53;3.75;;;;;;;14.45;45.53;101552.22;5027938;28;20049;-63